createdAt,value
2019-01-23T00:02:13.558Z,56.90
2019-01-23T00:04:42.020Z,57.00
2019-01-23T00:07:10.459Z,57.00
2019-01-23T00:09:39.450Z,57.20
2019-01-23T00:12:07.977Z,57.40
2019-01-23T00:14:36.459Z,57.40
2019-01-23T00:17:05.268Z,57.30
2019-01-23T00:19:33.714Z,57.40
2019-01-23T00:22:02.227Z,57.50
2019-01-23T00:24:30.711Z,57.50
2019-01-23T00:26:59.169Z,57.30
2019-01-23T00:29:27.634Z,57.80
2019-01-23T00:31:56.067Z,57.90
2019-01-23T00:34:24.523Z,57.90
2019-01-23T00:36:52.954Z,57.80
2019-01-23T00:39:21.423Z,57.80
2019-01-23T00:41:49.915Z,57.80
2019-01-23T00:44:18.414Z,57.90
2019-01-23T00:46:46.929Z,57.90
2019-01-23T00:49:15.392Z,57.80
2019-01-23T00:51:43.820Z,57.80
2019-01-23T00:54:12.840Z,58.00
2019-01-23T00:56:41.279Z,58.00
2019-01-23T00:59:09.760Z,58.10
2019-01-23T01:01:38.260Z,58.10
2019-01-23T01:04:06.707Z,58.10
2019-01-23T01:06:35.156Z,57.90
2019-01-23T01:09:05.152Z,57.90
2019-01-23T01:11:33.590Z,57.70
2019-01-23T01:14:02.021Z,57.90
2019-01-23T01:16:30.615Z,57.90
2019-01-23T01:18:59.047Z,57.90
2019-01-23T01:21:27.592Z,57.90
2019-01-23T01:23:56.022Z,57.80
2019-01-23T01:26:24.482Z,57.80
2019-01-23T01:28:56.119Z,57.70
2019-01-23T01:31:23.115Z,57.60
2019-01-23T01:33:51.615Z,57.50
2019-01-23T01:36:20.103Z,57.20
2019-01-23T01:38:48.586Z,57.70
2019-01-23T01:41:17.039Z,57.40
2019-01-23T01:43:45.476Z,57.20
2019-01-23T01:46:13.937Z,57.10
2019-01-23T01:48:42.482Z,57.30
2019-01-23T01:51:11.000Z,57.30
2019-01-23T01:53:58.775Z,56.90
2019-01-23T01:56:27.236Z,55.80
2019-01-23T01:59:15.024Z,57.00
2019-01-23T02:02:02.827Z,56.50
2019-01-23T02:04:31.260Z,55.60
2019-01-23T02:07:19.043Z,56.10
2019-01-23T02:10:08.687Z,56.40
2019-01-23T02:12:56.466Z,55.50
2019-01-23T02:15:44.295Z,56.30
2019-01-23T02:18:32.131Z,54.80
2019-01-23T02:21:19.924Z,54.80
2019-01-23T02:24:07.708Z,54.80
2019-01-23T02:26:55.500Z,55.90
2019-01-23T02:29:43.272Z,55.40
2019-01-23T02:32:31.071Z,55.50
2019-01-23T02:35:11.674Z,54.50
2019-01-23T02:37:52.626Z,54.90
2019-01-23T02:40:32.987Z,55.30
2019-01-23T02:43:13.572Z,53.70
2019-01-23T02:45:54.068Z,54.70
2019-01-23T02:48:34.941Z,54.00
2019-01-23T02:51:15.354Z,54.00
2019-01-23T02:53:56.121Z,54.00
2019-01-23T02:56:36.855Z,54.80
2019-01-23T02:59:18.063Z,54.80
2019-01-23T03:01:59.200Z,53.90
2019-01-23T03:04:39.728Z,54.40
2019-01-23T03:10:03.503Z,54.60
2019-01-23T03:12:43.970Z,54.80
2019-01-23T03:15:24.675Z,54.80
2019-01-23T03:18:05.210Z,54.70
2019-01-23T03:20:45.535Z,53.90
2019-01-23T03:23:26.320Z,54.70
2019-01-23T03:26:06.793Z,53.10
2019-01-23T03:28:47.744Z,54.50
2019-01-23T03:31:28.507Z,54.00
2019-01-23T03:33:56.951Z,53.20
2019-01-23T03:36:44.728Z,54.60
2019-01-23T03:39:32.514Z,53.60
2019-01-23T03:42:20.288Z,54.40
2019-01-23T03:45:28.884Z,54.30
2019-01-23T03:48:16.695Z,54.20
2019-01-23T03:51:04.543Z,54.30
2019-01-23T03:53:52.337Z,53.00
2019-01-23T03:56:40.178Z,53.60
2019-01-23T03:59:32.179Z,53.90
2019-01-23T04:02:17.756Z,54.20
2019-01-23T04:05:26.263Z,54.10
2019-01-23T04:08:14.035Z,53.60
2019-01-23T04:11:01.856Z,54.10
2019-01-23T04:13:49.710Z,54.00
2019-01-23T04:16:37.473Z,52.90
2019-01-23T04:19:25.259Z,53.80
2019-01-23T04:22:13.130Z,53.70
2019-01-23T04:25:00.932Z,53.70
2019-01-23T04:27:48.804Z,53.60
2019-01-23T04:30:36.639Z,52.70
2019-01-23T04:33:24.427Z,53.30
2019-01-23T04:36:04.977Z,53.00
2019-01-23T04:38:45.463Z,53.40
2019-01-23T04:41:25.734Z,52.00
2019-01-23T04:44:07.735Z,52.20
2019-01-23T04:46:48.298Z,52.30
2019-01-23T04:49:29.048Z,53.50
2019-01-23T04:52:11.192Z,53.60
2019-01-23T04:54:52.355Z,52.80
2019-01-23T04:57:32.920Z,52.90
2019-01-23T05:00:15.252Z,53.40
2019-01-23T05:02:56.232Z,53.60
2019-01-23T05:05:36.749Z,52.90
2019-01-23T05:08:17.312Z,53.10
2019-01-23T05:10:58.259Z,52.10
2019-01-23T05:13:39.115Z,52.70
2019-01-23T05:16:19.735Z,53.30
2019-01-23T05:19:00.743Z,52.70
2019-01-23T05:21:41.896Z,52.60
2019-01-23T05:24:22.738Z,53.20
2019-01-23T05:27:03.488Z,53.10
2019-01-23T05:29:44.045Z,52.20
2019-01-23T05:32:24.993Z,52.00
2019-01-23T05:37:41.071Z,52.40
2019-01-23T05:40:28.844Z,53.10
2019-01-23T05:43:16.691Z,52.20
2019-01-23T05:45:45.120Z,51.60
2019-01-23T05:48:33.067Z,52.80
2019-01-23T05:51:20.903Z,52.30
2019-01-23T05:54:08.681Z,52.10
2019-01-23T05:56:56.479Z,52.00
2019-01-23T05:59:44.255Z,52.20
2019-01-23T06:02:32.066Z,51.80
2019-01-23T06:05:20.105Z,52.10
2019-01-23T06:07:48.861Z,52.50
2019-01-23T06:10:17.403Z,52.50
2019-01-23T06:13:05.231Z,52.70
2019-01-23T06:15:53.079Z,52.50
2019-01-23T06:18:40.871Z,52.40
2019-01-23T06:21:28.644Z,52.50
2019-01-23T06:24:16.436Z,50.60
2019-01-23T06:27:04.283Z,52.60
2019-01-23T06:29:32.726Z,52.60
2019-01-23T06:32:20.518Z,52.70
2019-01-23T06:35:01.591Z,52.00
2019-01-23T06:37:42.988Z,52.00
2019-01-23T06:42:53.717Z,52.50
2019-01-23T06:45:22.362Z,51.80
2019-01-23T06:48:10.251Z,52.20
2019-01-23T06:50:58.076Z,52.70
2019-01-23T06:53:45.867Z,52.50
2019-01-23T06:56:33.633Z,53.30
2019-01-23T06:59:21.426Z,52.80
2019-01-23T07:02:09.882Z,52.20
2019-01-23T07:04:57.676Z,54.00
2019-01-23T07:07:26.101Z,53.90
2019-01-23T07:10:33.223Z,53.20
2019-01-23T07:13:21.006Z,53.90
2019-01-23T07:16:08.800Z,53.00
2019-01-23T07:18:56.607Z,52.60
2019-01-23T07:21:44.393Z,53.80
2019-01-23T07:24:32.179Z,53.90
2019-01-23T07:27:19.963Z,53.00
2019-01-23T07:30:27.074Z,53.80
2019-01-23T07:33:14.845Z,53.60
2019-01-23T07:35:55.898Z,53.60
2019-01-23T07:38:36.635Z,52.70
2019-01-23T07:41:17.744Z,53.40
2019-01-23T07:43:58.392Z,53.50
2019-01-23T07:46:38.922Z,53.00
2019-01-23T07:49:19.475Z,53.10
2019-01-23T07:52:00.616Z,53.00
2019-01-23T07:54:41.391Z,52.30
2019-01-23T07:57:22.394Z,53.00
2019-01-23T08:00:03.194Z,52.70
2019-01-23T08:02:44.159Z,51.70
2019-01-23T08:05:25.040Z,52.00
2019-01-23T08:08:05.967Z,52.80
2019-01-23T08:10:46.802Z,51.50
2019-01-23T08:13:27.572Z,51.60
2019-01-23T08:16:08.468Z,52.30
2019-01-23T08:18:49.103Z,52.40
2019-01-23T08:21:30.312Z,52.60
2019-01-23T08:26:53.230Z,52.70
2019-01-23T08:29:33.891Z,51.70
2019-01-23T08:32:14.812Z,52.60
2019-01-23T08:34:55.262Z,51.90
2019-01-23T08:37:35.811Z,51.30
2019-01-23T08:40:16.722Z,52.00
2019-01-23T08:42:57.616Z,51.00
2019-01-23T08:45:38.441Z,50.60
2019-01-23T08:48:18.871Z,51.80
2019-01-23T08:50:59.351Z,51.00
2019-01-23T08:53:40.136Z,51.20
2019-01-23T08:56:20.799Z,51.30
2019-01-23T08:59:01.331Z,50.90
2019-01-23T09:01:42.194Z,50.50
2019-01-23T09:07:05.277Z,51.00
2019-01-23T09:09:46.256Z,51.70
2019-01-23T09:12:27.077Z,52.00
2019-01-23T09:15:07.958Z,51.80
2019-01-23T09:17:48.663Z,52.00
2019-01-23T09:22:59.863Z,50.40
2019-01-23T09:25:28.338Z,51.90
2019-01-23T09:28:16.125Z,52.00
2019-01-23T09:31:05.440Z,52.00
2019-01-23T09:34:13.978Z,50.70
2019-01-23T09:36:55.644Z,51.20
2019-01-23T09:39:44.961Z,51.50
2019-01-23T09:42:52.080Z,52.20
2019-01-23T09:45:59.178Z,51.30
2019-01-23T09:49:06.292Z,52.20
2019-01-23T09:52:13.432Z,52.10
2019-01-23T09:55:01.200Z,51.90
2019-01-23T09:57:49.375Z,51.60
2019-01-23T10:00:37.147Z,51.00
2019-01-23T10:03:24.943Z,50.80
2019-01-23T10:06:12.712Z,50.10
2019-01-23T10:14:35.475Z,49.00
2019-01-23T10:17:23.259Z,48.60
2019-01-23T10:20:11.127Z,49.00
2019-01-23T10:23:06.176Z,51.30
2019-01-23T10:25:53.942Z,50.00
2019-01-23T10:28:41.742Z,49.90
2019-01-23T10:31:10.299Z,50.80
2019-01-23T10:33:58.095Z,51.00
2019-01-23T10:36:39.033Z,51.30
2019-01-23T10:39:19.721Z,51.40
2019-01-23T10:42:00.159Z,51.30
2019-01-23T10:44:40.631Z,50.20
2019-01-23T10:47:21.419Z,50.40
2019-01-23T10:50:02.284Z,51.50
2019-01-23T10:52:42.664Z,50.40
2019-01-23T10:55:23.277Z,49.90
2019-01-23T10:58:03.543Z,50.20
2019-01-23T11:00:47.679Z,49.60
2019-01-23T11:03:28.688Z,48.90
2019-01-23T11:06:09.131Z,49.70
2019-01-23T11:08:49.695Z,50.20
2019-01-23T11:11:29.939Z,50.20
2019-01-23T11:14:11.047Z,50.30
2019-01-23T11:16:51.380Z,50.40
2019-01-23T11:19:32.204Z,51.00
2019-01-23T11:22:13.192Z,49.80
2019-01-23T11:24:53.623Z,50.30
2019-01-23T11:27:34.108Z,50.10
2019-01-23T11:30:14.844Z,50.10
2019-01-23T11:32:55.139Z,49.90
2019-01-23T11:35:35.737Z,49.80
2019-01-23T11:38:16.536Z,49.80
2019-01-23T11:40:57.555Z,50.00
2019-01-23T11:46:20.720Z,49.50
2019-01-23T11:51:45.086Z,49.00
2019-01-23T11:54:26.170Z,50.00
2019-01-23T11:57:06.893Z,49.20
2019-01-23T11:59:47.504Z,49.30
2019-01-23T12:02:30.893Z,49.70
2019-01-23T12:05:11.225Z,49.40
2019-01-23T12:07:52.163Z,49.50
2019-01-23T12:10:32.728Z,50.30
2019-01-23T12:13:13.362Z,49.30
2019-01-23T12:15:54.553Z,49.40
2019-01-23T12:18:35.691Z,49.60
2019-01-23T12:21:16.291Z,50.20
2019-01-23T12:23:58.404Z,49.40
2019-01-23T12:26:39.279Z,49.50
2019-01-23T12:29:19.896Z,49.40
2019-01-23T12:32:00.462Z,49.70
2019-01-23T12:34:41.265Z,48.80
2019-01-23T12:37:22.252Z,49.80
2019-01-23T12:40:02.687Z,49.80
2019-01-23T12:42:43.296Z,48.40
2019-01-23T12:45:24.070Z,49.40
2019-01-23T12:48:04.687Z,50.10
2019-01-23T12:50:45.374Z,49.10
2019-01-23T12:53:25.961Z,50.20
2019-01-23T12:56:06.618Z,50.10
2019-01-23T12:58:47.454Z,50.10
2019-01-23T13:01:27.932Z,49.70
2019-01-23T13:04:08.959Z,48.40
2019-01-23T13:06:50.168Z,48.70
2019-01-23T13:09:18.627Z,48.50
2019-01-23T13:12:06.454Z,49.80
2019-01-23T13:14:34.877Z,49.10
2019-01-23T13:17:22.696Z,49.80
2019-01-23T13:20:31.187Z,48.40
2019-01-23T13:23:19.865Z,50.30
2019-01-23T13:26:08.603Z,49.10
2019-01-23T13:28:56.398Z,48.80
2019-01-23T13:31:49.106Z,49.20
2019-01-23T13:34:33.675Z,49.40
2019-01-23T13:37:21.472Z,49.70
2019-01-23T13:40:28.603Z,49.50
2019-01-23T13:43:16.387Z,49.30
2019-01-23T13:46:04.228Z,49.40
2019-01-23T13:48:52.020Z,49.10
2019-01-23T13:51:39.801Z,50.20
2019-01-23T13:54:27.585Z,49.70
2019-01-23T13:57:15.348Z,49.30
2019-01-23T14:00:23.876Z,49.60
2019-01-23T14:03:11.748Z,49.80
2019-01-23T14:05:59.596Z,50.40
2019-01-23T14:08:47.403Z,49.40
2019-01-23T14:11:35.191Z,49.70
2019-01-23T14:14:23.058Z,49.50
2019-01-23T14:17:10.814Z,49.80
2019-01-23T14:19:58.635Z,50.60
2019-01-23T14:22:46.499Z,50.40
2019-01-23T14:25:34.385Z,49.60
2019-01-23T14:28:22.234Z,49.60
2019-01-23T14:31:10.043Z,50.50
2019-01-23T14:33:57.818Z,49.90
2019-01-23T14:36:38.688Z,49.90
2019-01-23T14:42:02.468Z,49.50
2019-01-23T14:44:43.031Z,50.40
2019-01-23T14:47:24.004Z,50.90
2019-01-23T14:49:52.425Z,51.00
2019-01-23T14:52:20.891Z,50.60
2019-01-23T14:54:49.397Z,50.30
2019-01-23T14:57:17.914Z,51.10
2019-01-23T14:59:46.353Z,50.60
2019-01-23T15:02:34.131Z,51.10
2019-01-23T15:05:21.983Z,49.70
2019-01-23T15:08:09.777Z,49.40
2019-01-23T15:10:57.538Z,50.40
2019-01-23T15:13:45.328Z,49.60
2019-01-23T15:16:33.310Z,50.20
2019-01-23T15:19:21.384Z,50.40
2019-01-23T15:22:09.185Z,51.40
2019-01-23T15:24:56.952Z,50.50
2019-01-23T15:27:44.747Z,51.10
2019-01-23T15:30:32.525Z,51.20
2019-01-23T15:33:20.322Z,51.30
2019-01-23T15:36:08.171Z,50.50
2019-01-23T15:38:55.971Z,51.10
2019-01-23T15:41:43.840Z,51.40
2019-01-23T15:44:31.646Z,50.60
2019-01-23T15:47:19.450Z,50.70
2019-01-23T15:50:26.550Z,51.30
2019-01-23T15:56:09.338Z,50.60
2019-01-23T16:01:50.569Z,51.80
2019-01-23T16:04:38.382Z,51.30
2019-01-23T16:07:26.166Z,51.10
2019-01-23T16:13:42.592Z,52.10
2019-01-23T16:16:31.771Z,51.00
2019-01-23T16:19:19.567Z,51.20
2019-01-23T16:22:07.337Z,52.20
2019-01-23T16:24:55.143Z,51.10
2019-01-23T16:27:42.998Z,51.30
2019-01-23T16:30:32.379Z,50.90
2019-01-23T16:36:19.131Z,51.70
2019-01-23T16:39:07.286Z,51.70
2019-01-23T16:41:55.063Z,51.80
2019-01-23T16:44:42.860Z,50.50
2019-01-23T16:47:30.700Z,51.00
2019-01-23T16:50:37.806Z,51.80
2019-01-23T16:56:20.459Z,51.90
2019-01-23T16:59:08.339Z,52.00
2019-01-23T17:01:56.169Z,51.40
2019-01-23T17:04:43.974Z,51.80
2019-01-23T17:07:31.754Z,51.10
2019-01-23T17:10:00.203Z,51.70
2019-01-23T17:12:47.985Z,52.50
2019-01-23T17:15:35.838Z,51.70
2019-01-23T17:18:25.179Z,52.10
2019-01-23T17:21:13.090Z,52.50
2019-01-23T17:24:00.876Z,52.40
2019-01-23T17:26:48.685Z,52.60
2019-01-23T17:29:36.487Z,52.70
2019-01-23T17:32:24.271Z,52.70
2019-01-23T17:35:33.114Z,52.50
2019-01-23T17:38:20.883Z,52.70
2019-01-23T17:41:08.683Z,51.80
2019-01-23T17:49:59.766Z,52.60
2019-01-23T17:52:47.554Z,52.80
2019-01-23T17:55:28.682Z,51.70
2019-01-23T17:58:09.088Z,52.10
2019-01-23T18:00:51.149Z,52.00
2019-01-23T18:03:31.429Z,52.40
2019-01-23T18:06:13.331Z,51.50
2019-01-23T18:08:53.586Z,52.70
2019-01-23T18:11:34.119Z,50.30
2019-01-23T18:14:14.797Z,51.80
2019-01-23T18:16:55.790Z,51.10
2019-01-23T18:19:36.667Z,52.00
2019-01-23T18:22:17.411Z,52.00
2019-01-23T18:24:58.177Z,51.00
2019-01-23T18:27:38.553Z,51.20
2019-01-23T18:30:19.509Z,51.00
2019-01-23T18:35:44.038Z,50.60
2019-01-23T18:38:25.163Z,52.20
2019-01-23T18:41:05.708Z,52.00
2019-01-23T18:43:46.084Z,51.80
2019-01-23T18:46:26.515Z,51.20
2019-01-23T18:49:07.136Z,51.30
2019-01-23T18:51:47.850Z,51.70
2019-01-23T18:54:28.504Z,50.20
2019-01-23T18:57:08.730Z,51.30
2019-01-23T18:59:49.512Z,50.60
2019-01-23T19:02:19.479Z,51.00
2019-01-23T19:05:28.261Z,51.40
2019-01-23T19:08:16.048Z,50.90
2019-01-23T19:11:04.245Z,50.40
2019-01-23T19:13:52.025Z,50.50
2019-01-23T19:16:39.887Z,50.20
2019-01-23T19:19:27.688Z,51.40
2019-01-23T19:22:15.464Z,51.30
2019-01-23T19:25:03.382Z,49.90
2019-01-23T19:27:51.544Z,51.30
2019-01-23T19:30:39.413Z,51.20
2019-01-23T19:33:27.283Z,51.30
2019-01-23T19:36:08.023Z,50.40
2019-01-23T19:41:31.860Z,50.40
2019-01-23T19:44:12.589Z,51.10
2019-01-23T19:46:53.100Z,51.40
2019-01-23T19:49:33.756Z,50.40
2019-01-23T19:52:14.321Z,51.30
2019-01-23T19:54:54.796Z,51.00
2019-01-23T19:57:35.292Z,51.30
2019-01-23T20:00:15.800Z,51.60
2019-01-23T20:02:56.325Z,49.90
2019-01-23T20:05:36.989Z,51.40
2019-01-23T20:08:18.082Z,50.50
2019-01-23T20:10:58.806Z,50.40
2019-01-23T20:13:39.714Z,50.70
2019-01-23T20:16:20.315Z,51.10
2019-01-23T20:19:00.900Z,50.50
2019-01-23T20:21:41.808Z,51.40
2019-01-23T20:24:22.475Z,51.40
2019-01-23T20:27:03.760Z,51.10
2019-01-23T20:29:44.016Z,50.70
2019-01-23T20:32:24.876Z,51.50
2019-01-23T20:35:05.850Z,50.50
2019-01-23T20:37:46.742Z,51.10
2019-01-23T20:40:27.232Z,50.40
2019-01-23T20:43:07.723Z,50.40
2019-01-23T20:48:31.552Z,51.30
2019-01-23T20:51:12.459Z,51.00
2019-01-23T20:53:53.257Z,51.30
2019-01-23T20:56:35.067Z,51.00
2019-01-23T20:59:16.199Z,49.80
2019-01-23T21:01:57.337Z,50.50
2019-01-23T21:04:38.471Z,50.70
2019-01-23T21:07:19.476Z,51.70
2019-01-23T21:10:00.498Z,51.30
2019-01-23T21:12:29.142Z,50.60
2019-01-23T21:15:36.282Z,50.90
2019-01-23T21:18:24.355Z,50.10
2019-01-23T21:21:12.209Z,50.50
2019-01-23T21:24:00.019Z,51.60
2019-01-23T21:26:28.600Z,50.20
2019-01-23T21:29:16.791Z,51.60
2019-01-23T21:32:04.643Z,50.50
2019-01-23T21:34:52.460Z,51.50
2019-01-23T21:37:40.268Z,50.40
2019-01-23T21:40:29.370Z,50.10
2019-01-23T21:43:17.326Z,51.30
2019-01-23T21:46:05.115Z,50.20
2019-01-23T21:48:52.919Z,50.10
2019-01-23T21:51:41.014Z,50.30
2019-01-23T21:54:29.676Z,50.70
2019-01-23T21:57:18.328Z,50.30
2019-01-23T21:59:46.810Z,49.50
2019-01-23T22:02:15.373Z,50.90
2019-01-23T22:05:03.340Z,50.20
2019-01-23T22:07:51.208Z,49.70
2019-01-23T22:10:38.979Z,49.80
2019-01-23T22:13:26.803Z,51.00
2019-01-23T22:16:14.576Z,50.70
2019-01-23T22:19:02.416Z,50.00
2019-01-23T22:21:50.218Z,49.70
2019-01-23T22:24:38.021Z,50.50
2019-01-23T22:27:25.792Z,50.70
2019-01-23T22:30:34.334Z,50.60
2019-01-23T22:33:22.136Z,50.80
2019-01-23T22:36:02.917Z,49.50
2019-01-23T22:38:43.461Z,50.00
2019-01-23T22:41:24.268Z,50.60
2019-01-23T22:44:05.186Z,48.50
2019-01-23T22:46:46.159Z,50.60
2019-01-23T22:49:27.024Z,49.80
2019-01-23T22:52:07.521Z,49.40
2019-01-23T22:54:48.109Z,49.70
2019-01-23T22:57:28.745Z,50.00
2019-01-23T23:00:09.209Z,50.70
2019-01-23T23:02:49.492Z,49.60
2019-01-23T23:05:30.152Z,50.00
2019-01-23T23:08:10.831Z,50.50
2019-01-23T23:10:51.188Z,50.60
2019-01-23T23:16:14.788Z,49.90
2019-01-23T23:18:55.188Z,50.60
2019-01-23T23:21:36.077Z,50.20
2019-01-23T23:24:16.983Z,50.20
2019-01-23T23:26:57.694Z,48.50
2019-01-23T23:29:38.488Z,49.90
2019-01-23T23:32:18.991Z,49.10
2019-01-23T23:35:00.004Z,50.00
2019-01-23T23:37:41.051Z,49.00
2019-01-23T23:40:22.239Z,48.10
2019-01-23T23:45:46.275Z,49.70
2019-01-23T23:48:26.938Z,48.80
2019-01-23T23:51:07.937Z,49.60
2019-01-23T23:53:48.712Z,49.90
2019-01-23T23:56:29.536Z,50.10
2019-01-23T23:59:09.961Z,49.70
